Accueil
METAR-TAF:

METAR-TAF

Aéroports :

Altenstadt, Allemagne

latitude: 47-50N, longitude: 010-52E, altitude: 739 m

Observation

Le bulletin a été fait il y a 33 minutes, à 07:20 UTC
Vent 5 kt de est/sud-est
Température -3°C
Humidité 100%
Pression 1011 hPa
Visibilité: 0100 m
brouillard givrant

METAR: ETHA 210720Z 11005KT 0100 FZFG VV001 M03/M03 Q1011 RED RED

Heure: 08:53 (07:53 UTC)

Prévision

Le bulletin a été fait il y a 2 heures et 33 minutes, à 05:20 UTC
Prévision valable du 21 à 06 UTC au 21 à 15 UTC
Vent 7 kt de est/nord-est
Visibilité: 0300 m
à une hauteur de 100 ft
brouillard givrant
Evoluant progressivement
du 21 à 10 UTC au 21 à 12 UTC
Vent 8 kt de est/nord-est
Visibilité: 2000 m
Ciel couvert à une hauteur de 400 ft
brume

TAF: ETHA 210520Z 2106/2115 07007KT 0300 FZFG VV001 BECMG 2110/2112 07008KT 2000 BR OVC004

Observations et prévisions météorologiques de plus de 4000 aéroports (messages METAR et TAF).

Les stations disponibles sont représentées par des disques jaunes et rouges sur la carte.

Passer la souris dessus pour voir le nom de la station.

Cliquer dessus pour voir les observations et prévisions météorologiques.

Pour changer de carte: cliquez sur les boutons verts avec une croix noire pour zoomer, sur le bouton vert avec un tiret pour effectuer un zoom arrière, ou sur les flèches vertes pour les cartes adjacentes.


METAR-TAF: